Spring Garden, Missouri
Current Conditions -  °F | °C
As of 8:15 AM on Sunday 25 Jan 2015 (Local Time) from KAIZ Reporting Station
Overcast Overcast  
Wind Chill: 41°   Ceiling: 2000
Heat Index: 45°   Visibility: 10mi
Dew Point: 39°   Wind: 6mph
Humidity: 81%   Direction: 260°W
Pressure: 29.63"   Gusts: NA
Location:  38.3538°N, 92.3679°W
Report Text: KAIZ 251415Z AUTO 26005KT 10SM BKN020 BKN027 OVC036 07/04 A2963 RMK AO1
Loading
Personal Weather Stations






























Interactive Weather Map New forecast layout! Learn more

10-Day Weather Forecast

Advertisements
Track Severe Weather on mobile